Connellsville, PA

11:17 AM EDT on July 26, 2016 (GMT -0400)
Residential | | Change Station

Elev 1050 ft 40.04 °N, 79.56 °W | Updated 21 seconds ago

Mostly Cloudy
Mostly Cloudy
82.0 °F
Feels Like 88 °F
N
4.7
Wind Variable Wind from South

Today
High -- | Low -- °F
--% Chance of Precip.
Yesterday
High -- | Low -- °F
Precip. -- in
Pressure 30.06 in
Visibility 8.0 miles
Clouds Scattered Clouds 2500 ft
Mostly Cloudy 3500 ft
Heat Index 88 °F
Dew Point 74 °F
Humidity 77%
Rainfall 0.00 in
Snow Depth Not available.
6:11 AM 8:37 PM
Waning Gibbous, 54% visible
METAR KLBE 261450Z 24010KT 8SM SCT025 BKN035 27/22 A3006
Pressure 30.06 in
Visibility 8.0 miles
Clouds Scattered Clouds 2500 ft
Mostly Cloudy 3500 ft
Heat Index 88 °F
Dew Point 74 °F
Humidity 77%
Rainfall 0.00 in
Snow Depth Not available.
6:11 AM 8:37 PM
Waning Gibbous, 54% visible
METAR KLBE 261450Z 24010KT 8SM SCT025 BKN035 27/22 A3006

10-Day Weather Forecast

Almanac

Astronomy

Jul. 26, 2016 Rise Set
Actual Time
Civil Twilight
Nautical Twilight
Astronomical Twilight
Moon
Length of Visible Light
Length of Day
Tomorrow will be .
, % of the Moon is Illuminated

Today's Extremes

State Highs State Lows

Community

WunderPhotos

Upload Photos

1,927,612 photos uploaded!

WunderBlog® & News

Nearby

Air Quality

  Air Quality AQ Index Pollutant
Not available.

Snow Depth

Station Depth Elevation

Earthquake Activity

City Distance Mag. Time & Date
Minimum magnitude displayed is 2.5.

Coastal Water Temperatures

Place Temperature

Stations

Nearby Weather Stations

Station Location Temp. Windchill Dew Point Humidity Wind Precip. Elev Updated Type
                   

Watches & Warnings

There are currently no watches in effect.